HYT151 KLAS-KLAX
Flight info
| Callsign | HYT151 |
|---|---|
| Flight time | 0h 45m |
| Altitude | FL280 |
| Route | RADYR2 BLAQQ SHTNR ANJLL4 |
| Aircraft | B752/M-SDE2E3FGHIJ3J4J7RWXY/LB1 |
Departure
| Time | 2026-05-04 03:24 |
|---|---|
| Airport | Harry Reid International Airport (KLAS) |
Arrival
| Time | 2026-05-04 04:10 |
|---|---|
| Airport | Los Angeles International Airport (KLAX) |
| Time | Latitude | Longitude | Altitude | Speed | Heading |
|---|---|---|---|---|---|
| 2026-05-04 02:58 | 36.07982 | -115.12713 | 2044 ft | 0 kts | 270° |
| 2026-05-04 03:17 | 36.07982 | -115.12712 | 2044 ft | 2 kts | 270° |
| 2026-05-04 03:17 | 36.07982 | -115.12700 | 2043 ft | 2 kts | 269° |
| 2026-05-04 03:17 | 36.07985 | -115.12682 | 2043 ft | 2 kts | 249° |
| 2026-05-04 03:17 | 36.07991 | -115.12665 | 2042 ft | 2 kts | 234° |
| 2026-05-04 03:18 | 36.08001 | -115.12652 | 2042 ft | 2 kts | 219° |
| 2026-05-04 03:18 | 36.08014 | -115.12642 | 2041 ft | 2 kts | 204° |
| 2026-05-04 03:18 | 36.08028 | -115.12636 | 2041 ft | 2 kts | 189° |
| 2026-05-04 03:18 | 36.08037 | -115.12635 | 2041 ft | 1 kts | 180° |
| 2026-05-04 03:19 | 36.08041 | -115.12635 | 2041 ft | 0 kts | 180° |
| 2026-05-04 03:21 | 36.08035 | -115.12635 | 2041 ft | 5 kts | 180° |
| 2026-05-04 03:21 | 36.07977 | -115.12636 | 2042 ft | 10 kts | 181° |
| 2026-05-04 03:21 | 36.07923 | -115.12638 | 2043 ft | 2 kts | 182° |
| 2026-05-04 03:21 | 36.07878 | -115.12638 | 2045 ft | 13 kts | 172° |
| 2026-05-04 03:22 | 36.07828 | -115.12536 | 2044 ft | 15 kts | 93° |
| 2026-05-04 03:22 | 36.07826 | -115.12410 | 2042 ft | 12 kts | 90° |
| 2026-05-04 03:22 | 36.07826 | -115.12322 | 2040 ft | 11 kts | 90° |
| 2026-05-04 03:22 | 36.07801 | -115.12230 | 2039 ft | 11 kts | 128° |
| 2026-05-04 03:23 | 36.07767 | -115.12179 | 2039 ft | 8 kts | 130° |
| 2026-05-04 03:23 | 36.07722 | -115.12135 | 2040 ft | 11 kts | 160° |
| 2026-05-04 03:23 | 36.07640 | -115.12156 | 2041 ft | 12 kts | 246° |
| 2026-05-04 03:23 | 36.07641 | -115.12358 | 2045 ft | 55 kts | 270° |
| 2026-05-04 03:24 | 36.07643 | -115.13277 | 2097 ft | 152 kts | 264° |
| 2026-05-04 03:24 | 36.07649 | -115.14777 | 2608 ft | 199 kts | 267° |
| 2026-05-04 03:24 | 36.07655 | -115.16668 | 3105 ft | 241 kts | 267° |
| 2026-05-04 03:24 | 36.07667 | -115.18778 | 3961 ft | 252 kts | 267° |
| 2026-05-04 03:25 | 36.07555 | -115.20804 | 5463 ft | 242 kts | 258° |
| 2026-05-04 03:25 | 36.07278 | -115.22836 | 6557 ft | 250 kts | 257° |
| 2026-05-04 03:25 | 36.06750 | -115.24885 | 7410 ft | 263 kts | 235° |
| 2026-05-04 03:25 | 36.05449 | -115.26499 | 8064 ft | 272 kts | 211° |
| 2026-05-04 03:26 | 36.03699 | -115.27426 | 8081 ft | 275 kts | 199° |
| 2026-05-04 03:26 | 36.01935 | -115.28187 | 8064 ft | 259 kts | 200° |
| 2026-05-04 03:26 | 36.00312 | -115.28917 | 8064 ft | 239 kts | 200° |
| 2026-05-04 03:26 | 35.98730 | -115.29513 | 8079 ft | 243 kts | 191° |
| 2026-05-04 03:27 | 35.97003 | -115.29930 | 8738 ft | 260 kts | 191° |
| 2026-05-04 03:27 | 35.95364 | -115.30341 | 10404 ft | 243 kts | 189° |
| 2026-05-04 03:27 | 35.93702 | -115.30750 | 11468 ft | 251 kts | 188° |
| 2026-05-04 03:27 | 35.92021 | -115.31162 | 12706 ft | 252 kts | 190° |
| 2026-05-04 03:28 | 35.90300 | -115.31585 | 13768 ft | 259 kts | 190° |
| 2026-05-04 03:28 | 35.88562 | -115.32011 | 14949 ft | 260 kts | 191° |
| 2026-05-04 03:28 | 35.86764 | -115.32451 | 15873 ft | 271 kts | 191° |
| 2026-05-04 03:28 | 35.84948 | -115.32897 | 17020 ft | 272 kts | 193° |
| 2026-05-04 03:29 | 35.83114 | -115.33345 | 18119 ft | 274 kts | 195° |
| 2026-05-04 03:29 | 35.81225 | -115.33810 | 19005 ft | 282 kts | 196° |
| 2026-05-04 03:29 | 35.79337 | -115.34270 | 20161 ft | 279 kts | 198° |
| 2026-05-04 03:29 | 35.77416 | -115.34744 | 20915 ft | 289 kts | 199° |
| 2026-05-04 03:30 | 35.75476 | -115.35216 | 22061 ft | 283 kts | 200° |
| 2026-05-04 03:30 | 35.73575 | -115.35681 | 22871 ft | 289 kts | 202° |
| 2026-05-04 03:30 | 35.71606 | -115.36165 | 23884 ft | 289 kts | 202° |
| 2026-05-04 03:30 | 35.69651 | -115.36646 | 24632 ft | 296 kts | 201° |
| 2026-05-04 03:31 | 35.67599 | -115.37152 | 25330 ft | 304 kts | 201° |
| 2026-05-04 03:31 | 35.65463 | -115.37683 | 25609 ft | 325 kts | 201° |
| 2026-05-04 03:31 | 35.63159 | -115.38254 | 25688 ft | 351 kts | 201° |
| 2026-05-04 03:31 | 35.60674 | -115.38699 | 26152 ft | 371 kts | 192° |
| 2026-05-04 03:32 | 35.58107 | -115.38588 | 27357 ft | 370 kts | 187° |
| 2026-05-04 03:32 | 35.55581 | -115.38390 | 27871 ft | 366 kts | 187° |
| 2026-05-04 03:32 | 35.53000 | -115.38217 | 27875 ft | 375 kts | 187° |
| 2026-05-04 03:32 | 35.50372 | -115.38028 | 27870 ft | 377 kts | 187° |
| 2026-05-04 03:33 | 35.47770 | -115.37846 | 27866 ft | 371 kts | 189° |
| 2026-05-04 03:33 | 35.45272 | -115.38042 | 27877 ft | 349 kts | 202° |
| 2026-05-04 03:33 | 35.43007 | -115.38944 | 27891 ft | 343 kts | 211° |
| 2026-05-04 03:33 | 35.40800 | -115.40129 | 27884 ft | 347 kts | 212° |
| 2026-05-04 03:34 | 35.38631 | -115.41362 | 27884 ft | 341 kts | 214° |
| 2026-05-04 03:34 | 35.36517 | -115.42611 | 27880 ft | 337 kts | 214° |
| 2026-05-04 03:34 | 35.34399 | -115.43903 | 27895 ft | 338 kts | 215° |
| 2026-05-04 03:34 | 35.32306 | -115.45202 | 27895 ft | 339 kts | 215° |
| 2026-05-04 03:35 | 35.30200 | -115.46523 | 27898 ft | 341 kts | 214° |
| 2026-05-04 03:35 | 35.28104 | -115.47845 | 27895 ft | 340 kts | 215° |
| 2026-05-04 03:35 | 35.26005 | -115.49175 | 27894 ft | 339 kts | 216° |
| 2026-05-04 03:35 | 35.23922 | -115.50493 | 27887 ft | 336 kts | 215° |
| 2026-05-04 03:36 | 35.21847 | -115.51811 | 27898 ft | 339 kts | 216° |
| 2026-05-04 03:36 | 35.19745 | -115.53150 | 27887 ft | 339 kts | 215° |
| 2026-05-04 03:36 | 35.17660 | -115.54474 | 27890 ft | 338 kts | 215° |
| 2026-05-04 03:36 | 35.15585 | -115.55799 | 27883 ft | 336 kts | 217° |
| 2026-05-04 03:37 | 35.13745 | -115.57479 | 27892 ft | 329 kts | 231° |
| 2026-05-04 03:37 | 35.12368 | -115.59658 | 27886 ft | 325 kts | 241° |
| 2026-05-04 03:37 | 35.11205 | -115.62006 | 27868 ft | 322 kts | 243° |
| 2026-05-04 03:37 | 35.10094 | -115.64376 | 27862 ft | 321 kts | 243° |
| 2026-05-04 03:38 | 35.09028 | -115.66788 | 27870 ft | 321 kts | 243° |
| 2026-05-04 03:38 | 35.07998 | -115.69191 | 27859 ft | 320 kts | 244° |
| 2026-05-04 03:38 | 35.06985 | -115.71608 | 27851 ft | 322 kts | 245° |
| 2026-05-04 03:38 | 35.05982 | -115.74037 | 27835 ft | 322 kts | 244° |
| 2026-05-04 03:39 | 35.05042 | -115.76592 | 27840 ft | 340 kts | 251° |
| 2026-05-04 03:39 | 35.04257 | -115.79396 | 27841 ft | 359 kts | 246° |
| 2026-05-04 03:39 | 35.03011 | -115.82126 | 27832 ft | 378 kts | 237° |
| 2026-05-04 03:39 | 35.01271 | -115.84664 | 27823 ft | 398 kts | 229° |
| 2026-05-04 03:40 | 34.99112 | -115.86872 | 27823 ft | 412 kts | 222° |
| 2026-05-04 03:40 | 34.96855 | -115.89045 | 27812 ft | 416 kts | 223° |
| 2026-05-04 03:40 | 34.92256 | -115.93712 | 27822 ft | 414 kts | 224° |
| 2026-05-04 03:41 | 34.90065 | -115.95995 | 27824 ft | 412 kts | 225° |
| 2026-05-04 03:41 | 34.87908 | -115.98271 | 27831 ft | 409 kts | 225° |
| 2026-05-04 03:41 | 34.85739 | -116.00571 | 27834 ft | 414 kts | 226° |
| 2026-05-04 03:41 | 34.83576 | -116.02882 | 27836 ft | 413 kts | 225° |
| 2026-05-04 03:42 | 34.81448 | -116.05151 | 27828 ft | 398 kts | 226° |
| 2026-05-04 03:42 | 34.79442 | -116.07292 | 27817 ft | 373 kts | 227° |
| 2026-05-04 03:42 | 34.77553 | -116.09314 | 27818 ft | 349 kts | 227° |
| 2026-05-04 03:42 | 34.75806 | -116.11184 | 27814 ft | 326 kts | 227° |
| 2026-05-04 03:43 | 34.74104 | -116.13021 | 27848 ft | 335 kts | 227° |
| 2026-05-04 03:43 | 34.72322 | -116.14949 | 27853 ft | 345 kts | 226° |
| 2026-05-04 03:43 | 34.70535 | -116.16860 | 27833 ft | 341 kts | 227° |
| 2026-05-04 03:43 | 34.68761 | -116.18766 | 27858 ft | 343 kts | 227° |
| 2026-05-04 03:44 | 34.66976 | -116.20681 | 27864 ft | 343 kts | 226° |
| 2026-05-04 03:44 | 34.65194 | -116.22590 | 27864 ft | 342 kts | 228° |
| 2026-05-04 03:44 | 34.63423 | -116.24488 | 27877 ft | 340 kts | 227° |
| 2026-05-04 03:44 | 34.61657 | -116.26379 | 27872 ft | 339 kts | 227° |
| 2026-05-04 03:45 | 34.59871 | -116.28290 | 27885 ft | 342 kts | 227° |
| 2026-05-04 03:45 | 34.58092 | -116.30193 | 27875 ft | 343 kts | 227° |
| 2026-05-04 03:45 | 34.56310 | -116.32096 | 27882 ft | 340 kts | 227° |
| 2026-05-04 03:45 | 34.54544 | -116.33982 | 27886 ft | 340 kts | 227° |
| 2026-05-04 03:46 | 34.52767 | -116.35880 | 27875 ft | 342 kts | 227° |
| 2026-05-04 03:46 | 34.50981 | -116.37785 | 27876 ft | 341 kts | 227° |
| 2026-05-04 03:46 | 34.49201 | -116.39685 | 27880 ft | 342 kts | 227° |
| 2026-05-04 03:46 | 34.47408 | -116.41594 | 27886 ft | 342 kts | 227° |
| 2026-05-04 03:47 | 34.45622 | -116.43494 | 27880 ft | 341 kts | 227° |
| 2026-05-04 03:47 | 34.43837 | -116.45395 | 27894 ft | 341 kts | 227° |
| 2026-05-04 03:47 | 34.42185 | -116.47399 | 27910 ft | 333 kts | 236° |
| 2026-05-04 03:47 | 34.40938 | -116.49743 | 27908 ft | 333 kts | 244° |
| 2026-05-04 03:48 | 34.39890 | -116.52228 | 27903 ft | 334 kts | 245° |
| 2026-05-04 03:48 | 34.38837 | -116.54723 | 27888 ft | 332 kts | 244° |
| 2026-05-04 03:48 | 34.37792 | -116.57214 | 27901 ft | 331 kts | 245° |
| 2026-05-04 03:48 | 34.36754 | -116.59707 | 27916 ft | 333 kts | 245° |
| 2026-05-04 03:49 | 34.35725 | -116.62188 | 27929 ft | 330 kts | 245° |
| 2026-05-04 03:49 | 34.34698 | -116.64664 | 27932 ft | 331 kts | 245° |
| 2026-05-04 03:49 | 34.33671 | -116.67143 | 27960 ft | 331 kts | 245° |
| 2026-05-04 03:49 | 34.32656 | -116.69654 | 27971 ft | 332 kts | 245° |
| 2026-05-04 03:50 | 34.31659 | -116.72134 | 27960 ft | 328 kts | 245° |
| 2026-05-04 03:50 | 34.30652 | -116.74631 | 27981 ft | 331 kts | 246° |
| 2026-05-04 03:50 | 34.29650 | -116.77127 | 27973 ft | 330 kts | 245° |
| 2026-05-04 03:50 | 34.28651 | -116.79601 | 27991 ft | 330 kts | 246° |
| 2026-05-04 03:51 | 34.27651 | -116.82086 | 28000 ft | 329 kts | 246° |
| 2026-05-04 03:51 | 34.26651 | -116.84568 | 27997 ft | 328 kts | 245° |
| 2026-05-04 03:51 | 34.25655 | -116.87036 | 27986 ft | 329 kts | 245° |
| 2026-05-04 03:52 | 34.23641 | -116.92016 | 27999 ft | 327 kts | 246° |
| 2026-05-04 03:52 | 34.21644 | -116.96959 | 28011 ft | 331 kts | 246° |
| 2026-05-04 03:53 | 34.20098 | -117.02110 | 28013 ft | 329 kts | 251° |
| 2026-05-04 03:53 | 34.19384 | -117.04727 | 27998 ft | 329 kts | 252° |
| 2026-05-04 03:53 | 34.18675 | -117.07326 | 27980 ft | 326 kts | 251° |
| 2026-05-04 03:53 | 34.17970 | -117.09922 | 27999 ft | 324 kts | 252° |
| 2026-05-04 03:54 | 34.17262 | -117.12524 | 27641 ft | 335 kts | 251° |
| 2026-05-04 03:54 | 34.16555 | -117.15133 | 26839 ft | 323 kts | 252° |
| 2026-05-04 03:54 | 34.15884 | -117.17665 | 26106 ft | 319 kts | 252° |
| 2026-05-04 03:54 | 34.15214 | -117.20192 | 25360 ft | 319 kts | 252° |
| 2026-05-04 03:55 | 34.14532 | -117.22758 | 24694 ft | 329 kts | 252° |
| 2026-05-04 03:55 | 34.13829 | -117.25414 | 23986 ft | 337 kts | 251° |
| 2026-05-04 03:55 | 34.13115 | -117.28098 | 23271 ft | 335 kts | 252° |
| 2026-05-04 03:55 | 34.12409 | -117.30758 | 22546 ft | 337 kts | 251° |
| 2026-05-04 03:56 | 34.11708 | -117.33392 | 21726 ft | 325 kts | 251° |
| 2026-05-04 03:56 | 34.11018 | -117.35979 | 20995 ft | 331 kts | 251° |
| 2026-05-04 03:56 | 34.10315 | -117.38614 | 20256 ft | 331 kts | 251° |
| 2026-05-04 03:56 | 34.09615 | -117.41241 | 19523 ft | 329 kts | 251° |
| 2026-05-04 03:57 | 34.08924 | -117.43819 | 18786 ft | 323 kts | 252° |
| 2026-05-04 03:57 | 34.08237 | -117.46395 | 18051 ft | 319 kts | 252° |
| 2026-05-04 03:57 | 34.07577 | -117.48860 | 17309 ft | 302 kts | 251° |
| 2026-05-04 03:57 | 34.06842 | -117.51164 | 16597 ft | 296 kts | 246° |
| 2026-05-04 03:58 | 34.05183 | -117.55767 | 15166 ft | 305 kts | 246° |
| 2026-05-04 03:58 | 34.04351 | -117.58081 | 14444 ft | 301 kts | 246° |
| 2026-05-04 03:58 | 34.03525 | -117.60381 | 13732 ft | 304 kts | 246° |
| 2026-05-04 03:59 | 34.02695 | -117.62690 | 13119 ft | 289 kts | 245° |
| 2026-05-04 03:59 | 34.01935 | -117.64799 | 12502 ft | 266 kts | 245° |
| 2026-05-04 03:59 | 34.01216 | -117.66792 | 11895 ft | 262 kts | 245° |
| 2026-05-04 03:59 | 34.00665 | -117.68879 | 11305 ft | 267 kts | 259° |
| 2026-05-04 04:00 | 34.00444 | -117.71072 | 10701 ft | 263 kts | 261° |
| 2026-05-04 04:00 | 34.00221 | -117.73242 | 10091 ft | 263 kts | 261° |
| 2026-05-04 04:00 | 34.00009 | -117.75365 | 9761 ft | 255 kts | 261° |
| 2026-05-04 04:00 | 33.99792 | -117.77522 | 9481 ft | 261 kts | 261° |
| 2026-05-04 04:01 | 33.99578 | -117.79675 | 9156 ft | 258 kts | 261° |
| 2026-05-04 04:01 | 33.99365 | -117.81835 | 8848 ft | 262 kts | 262° |
| 2026-05-04 04:01 | 33.99154 | -117.83997 | 8518 ft | 261 kts | 262° |
| 2026-05-04 04:01 | 33.98943 | -117.86172 | 8171 ft | 261 kts | 262° |
| 2026-05-04 04:02 | 33.98731 | -117.88339 | 7852 ft | 260 kts | 262° |
| 2026-05-04 04:02 | 33.98521 | -117.90489 | 7525 ft | 261 kts | 262° |
| 2026-05-04 04:02 | 33.98307 | -117.92666 | 7195 ft | 262 kts | 262° |
| 2026-05-04 04:02 | 33.98095 | -117.94821 | 6866 ft | 260 kts | 262° |
| 2026-05-04 04:03 | 33.97882 | -117.96979 | 6540 ft | 260 kts | 262° |
| 2026-05-04 04:03 | 33.97670 | -117.99128 | 6213 ft | 259 kts | 262° |
| 2026-05-04 04:03 | 33.97458 | -118.01274 | 5888 ft | 258 kts | 262° |
| 2026-05-04 04:03 | 33.97245 | -118.03417 | 5569 ft | 257 kts | 262° |
| 2026-05-04 04:04 | 33.97034 | -118.05544 | 5240 ft | 254 kts | 262° |
| 2026-05-04 04:04 | 33.96821 | -118.07669 | 4924 ft | 257 kts | 262° |
| 2026-05-04 04:04 | 33.96612 | -118.09781 | 4578 ft | 254 kts | 262° |
| 2026-05-04 04:04 | 33.96406 | -118.11850 | 4235 ft | 242 kts | 262° |
| 2026-05-04 04:05 | 33.96214 | -118.13787 | 3912 ft | 226 kts | 262° |
| 2026-05-04 04:05 | 33.96032 | -118.15605 | 3625 ft | 215 kts | 262° |
| 2026-05-04 04:05 | 33.95863 | -118.17299 | 3206 ft | 196 kts | 262° |
| 2026-05-04 04:05 | 33.95709 | -118.18832 | 2881 ft | 174 kts | 262° |
| 2026-05-04 04:06 | 33.95560 | -118.20294 | 2799 ft | 181 kts | 262° |
| 2026-05-04 04:06 | 33.95406 | -118.21813 | 2639 ft | 185 kts | 262° |
| 2026-05-04 04:06 | 33.95251 | -118.23349 | 2307 ft | 185 kts | 262° |
| 2026-05-04 04:06 | 33.95098 | -118.24862 | 2004 ft | 180 kts | 261° |
| 2026-05-04 04:07 | 33.94949 | -118.26340 | 1970 ft | 181 kts | 261° |
| 2026-05-04 04:07 | 33.94799 | -118.27849 | 1868 ft | 184 kts | 263° |
| 2026-05-04 04:07 | 33.94662 | -118.29358 | 1625 ft | 176 kts | 263° |
| 2026-05-04 04:07 | 33.94532 | -118.30718 | 1486 ft | 150 kts | 262° |
| 2026-05-04 04:08 | 33.94410 | -118.31876 | 1435 ft | 126 kts | 262° |
| 2026-05-04 04:08 | 33.94293 | -118.32872 | 1213 ft | 116 kts | 260° |
| 2026-05-04 04:08 | 33.94181 | -118.33820 | 924 ft | 119 kts | 262° |
| 2026-05-04 04:08 | 33.94090 | -118.34780 | 727 ft | 111 kts | 264° |
| 2026-05-04 04:09 | 33.93998 | -118.35701 | 581 ft | 115 kts | 262° |
| 2026-05-04 04:09 | 33.93899 | -118.36668 | 467 ft | 114 kts | 260° |
| 2026-05-04 04:09 | 33.93803 | -118.37608 | 273 ft | 114 kts | 264° |
| 2026-05-04 04:09 | 33.93712 | -118.38557 | 144 ft | 111 kts | 263° |
| 2026-05-04 04:10 | 33.93625 | -118.39388 | 111 ft | 75 kts | 263° |
| 2026-05-04 04:10 | 33.93578 | -118.39815 | 116 ft | 36 kts | 262° |
| 2026-05-04 04:10 | 33.93561 | -118.39970 | 119 ft | 12 kts | 258° |
| 2026-05-04 04:10 | 33.93526 | -118.40112 | 122 ft | 21 kts | 249° |
| 2026-05-04 04:11 | 33.93479 | -118.40220 | 123 ft | 12 kts | 237° |
| 2026-05-04 04:11 | 33.93467 | -118.40241 | 123 ft | 0 kts | 236° |
| 2026-05-04 04:11 | 33.93454 | -118.40264 | 123 ft | 6 kts | 236° |
| 2026-05-04 04:11 | 33.93429 | -118.40306 | 122 ft | 6 kts | 234° |
| 2026-05-04 04:12 | 33.93407 | -118.40360 | 123 ft | 0 kts | 249° |
| 2026-05-04 04:12 | 33.93399 | -118.40376 | 123 ft | 4 kts | 230° |
| 2026-05-04 04:12 | 33.93368 | -118.40389 | 123 ft | 3 kts | 174° |
| 2026-05-04 04:12 | 33.93338 | -118.40383 | 123 ft | 7 kts | 167° |
| 2026-05-04 04:13 | 33.93323 | -118.40379 | 123 ft | 2 kts | 175° |
| 2026-05-04 04:13 | 33.93307 | -118.40377 | 123 ft | 0 kts | 174° |
| 2026-05-04 04:13 | 33.93306 | -118.40377 | 123 ft | 0 kts | 174° |